createdAt,value
2018-10-01T00:02:00.513Z,12.97
2018-10-01T00:04:28.598Z,15.87
2018-10-01T00:06:56.686Z,11.40
2018-10-01T00:09:24.777Z,10.30
2018-10-01T00:11:52.875Z,13.13
2018-10-01T00:14:20.981Z,9.57
2018-10-01T00:16:49.081Z,11.87
2018-10-01T00:19:22.694Z,10.13
2018-10-01T00:21:56.320Z,11.37
2018-10-01T00:24:24.598Z,9.77
2018-10-01T00:26:52.686Z,9.43
2018-10-01T00:29:20.763Z,9.37
2018-10-01T00:31:49.013Z,8.80
2018-10-01T00:34:17.405Z,11.13
2018-10-01T00:36:45.770Z,9.37
2018-10-01T00:39:13.869Z,10.53
2018-10-01T00:41:42.224Z,12.80
2018-10-01T00:44:10.350Z,10.23
2018-10-01T00:46:38.478Z,14.50
2018-10-01T00:49:06.930Z,10.07
2018-10-01T00:51:35.087Z,9.67
2018-10-01T00:54:03.252Z,10.23
2018-10-01T00:56:31.352Z,11.67
2018-10-01T00:59:00.101Z,11.70
2018-10-01T01:01:28.329Z,9.57
2018-10-01T01:03:56.437Z,10.67
2018-10-01T01:06:32.331Z,12.10
2018-10-01T01:09:00.479Z,12.77
2018-10-01T01:11:28.584Z,11.80
2018-10-01T01:13:56.694Z,14.67
2018-10-01T01:16:24.795Z,13.03
2018-10-01T01:18:53.060Z,16.20
2018-10-01T01:21:21.177Z,13.20
2018-10-01T01:23:49.293Z,9.77
2018-10-01T01:26:17.423Z,14.67
2018-10-01T01:28:45.588Z,12.97
2018-10-01T01:31:13.696Z,13.30
2018-10-01T01:33:44.819Z,14.63
2018-10-01T01:36:13.006Z,13.57
2018-10-01T01:38:41.114Z,10.57
2018-10-01T01:41:09.228Z,11.30
2018-10-01T01:43:37.339Z,12.13
2018-10-01T01:46:05.448Z,11.77
2018-10-01T01:48:33.601Z,12.43
2018-10-01T01:51:01.793Z,10.53
2018-10-01T01:53:30.148Z,8.83
2018-10-01T01:55:58.277Z,12.53
2018-10-01T01:58:26.419Z,13.37
2018-10-01T02:00:54.540Z,15.30
2018-10-01T02:03:22.640Z,12.97
2018-10-01T02:05:50.782Z,13.37
2018-10-01T02:08:18.912Z,13.37
2018-10-01T02:10:47.029Z,17.43
2018-10-01T02:13:15.173Z,11.13
2018-10-01T02:15:43.295Z,12.03
2018-10-01T02:18:11.445Z,13.20
2018-10-01T02:20:39.560Z,11.27
2018-10-01T02:23:08.931Z,13.17
2018-10-01T02:25:39.724Z,14.83
2018-10-01T02:28:08.100Z,13.77
2018-10-01T02:30:36.221Z,15.57
2018-10-01T02:33:04.384Z,13.30
2018-10-01T02:35:32.488Z,14.50
2018-10-01T02:38:00.597Z,12.10
2018-10-01T02:40:28.722Z,17.57
2018-10-01T02:42:56.860Z,12.73
2018-10-01T02:45:24.952Z,14.20
2018-10-01T02:47:53.171Z,15.77
2018-10-01T02:50:21.262Z,15.33
2018-10-01T02:52:54.857Z,14.77
2018-10-01T02:55:23.039Z,17.13
2018-10-01T02:57:51.126Z,17.07
2018-10-01T03:00:19.227Z,17.57
2018-10-01T03:02:47.357Z,18.67
2018-10-01T03:05:15.459Z,15.57
2018-10-01T03:07:43.583Z,15.23
2018-10-01T03:10:11.781Z,18.40
2018-10-01T03:12:39.911Z,18.57
2018-10-01T03:15:08.166Z,12.80
2018-10-01T03:17:36.319Z,15.50
2018-10-01T03:20:05.001Z,13.63
2018-10-01T03:22:33.100Z,17.20
2018-10-01T03:25:01.263Z,16.97
2018-10-01T03:27:29.372Z,18.33
2018-10-01T03:29:57.496Z,15.50
2018-10-01T03:32:25.665Z,18.57
2018-10-01T03:34:53.769Z,17.30
2018-10-01T03:37:21.901Z,18.37
2018-10-01T03:39:50.018Z,21.03
2018-10-01T03:42:18.167Z,16.17
2018-10-01T03:44:46.252Z,15.57
2018-10-01T03:47:14.357Z,20.43
2018-10-01T03:49:42.488Z,14.67
2018-10-01T03:52:10.707Z,15.90
2018-10-01T03:54:38.825Z,15.83
2018-10-01T03:57:06.974Z,19.20
2018-10-01T03:59:35.098Z,19.73
2018-10-01T04:02:03.238Z,13.93
2018-10-01T04:04:31.358Z,16.50
2018-10-01T04:06:59.460Z,17.10
2018-10-01T04:09:27.592Z,19.07
2018-10-01T04:11:55.704Z,15.50
2018-10-01T04:14:23.817Z,18.13
2018-10-01T04:16:52.007Z,20.17
2018-10-01T04:19:20.124Z,18.00
2018-10-01T04:21:48.282Z,17.43
2018-10-01T04:24:16.416Z,12.80
2018-10-01T04:26:44.561Z,17.20
2018-10-01T04:29:13.850Z,22.13
2018-10-01T04:31:42.950Z,12.93
2018-10-01T04:34:11.098Z,16.00
2018-10-01T04:36:39.230Z,14.30
2018-10-01T04:39:11.344Z,10.93
2018-10-01T04:41:39.805Z,20.30
2018-10-01T04:44:08.093Z,16.27
2018-10-01T04:46:37.161Z,15.67
2018-10-01T04:49:05.378Z,20.03
2018-10-01T04:51:33.477Z,17.23
2018-10-01T04:54:01.618Z,21.67
2018-10-01T04:56:29.724Z,15.00
2018-10-01T04:58:57.910Z,14.73
2018-10-01T05:01:34.796Z,12.33
2018-10-01T05:04:03.026Z,17.63
2018-10-01T05:06:31.178Z,15.80
2018-10-01T05:08:59.277Z,13.50
2018-10-01T05:11:27.436Z,15.37
2018-10-01T05:13:55.561Z,10.70
2018-10-01T05:16:23.661Z,15.70
2018-10-01T05:18:51.815Z,14.30
2018-10-01T05:21:19.931Z,13.67
2018-10-01T05:23:48.061Z,14.67
2018-10-01T05:26:16.205Z,15.30
2018-10-01T05:28:44.409Z,14.67
2018-10-01T05:31:12.547Z,11.03
2018-10-01T05:33:40.676Z,15.37
2018-10-01T05:36:08.817Z,14.37
2018-10-01T05:38:36.945Z,14.87
2018-10-01T05:41:05.093Z,18.83
2018-10-01T05:43:33.242Z,12.80
2018-10-01T05:46:01.454Z,13.83
2018-10-01T05:48:29.548Z,8.83
2018-10-01T05:50:57.693Z,14.70
2018-10-01T05:53:26.510Z,11.77
2018-10-01T05:55:54.830Z,16.23
2018-10-01T05:58:23.062Z,14.57
2018-10-01T06:00:51.261Z,14.97
2018-10-01T06:03:19.424Z,14.93
2018-10-01T06:05:47.649Z,13.43
2018-10-01T06:08:15.813Z,15.13
2018-10-01T06:10:44.148Z,12.37
2018-10-01T06:13:12.397Z,14.43
2018-10-01T06:15:40.545Z,16.07
2018-10-01T06:18:09.051Z,14.57
2018-10-01T06:20:37.291Z,11.17
2018-10-01T06:23:05.469Z,12.03
2018-10-01T06:25:33.744Z,11.47
2018-10-01T06:28:02.164Z,15.27
2018-10-01T06:30:30.559Z,12.33
2018-10-01T06:32:58.741Z,8.03
2018-10-01T06:35:26.971Z,11.73
2018-10-01T06:37:55.137Z,12.30
2018-10-01T06:40:23.290Z,13.83
2018-10-01T06:42:51.470Z,10.57
2018-10-01T06:45:19.682Z,14.97
2018-10-01T06:47:47.839Z,10.77
2018-10-01T06:50:16.081Z,12.07
2018-10-01T06:52:44.226Z,17.17
2018-10-01T06:55:12.365Z,8.70
2018-10-01T06:57:40.543Z,11.10
2018-10-01T07:00:09.207Z,10.73
2018-10-01T07:02:37.388Z,13.07
2018-10-01T07:05:05.615Z,13.13
2018-10-01T07:07:33.734Z,10.13
2018-10-01T07:10:01.925Z,10.90
2018-10-01T07:12:30.081Z,12.80
2018-10-01T07:14:58.389Z,9.30
2018-10-01T07:17:26.651Z,11.70
2018-10-01T07:19:54.738Z,9.73
2018-10-01T07:22:22.924Z,8.57
2018-10-01T07:24:51.017Z,11.53
2018-10-01T07:27:19.144Z,10.53
2018-10-01T07:29:47.361Z,11.37
2018-10-01T07:32:15.468Z,9.37
2018-10-01T07:34:43.640Z,9.23
2018-10-01T07:37:11.950Z,10.23
2018-10-01T07:39:40.122Z,11.63
2018-10-01T07:42:08.405Z,8.97
2018-10-01T07:44:36.597Z,11.27
2018-10-01T07:47:04.743Z,11.03
2018-10-01T07:49:32.895Z,10.93
2018-10-01T07:52:01.095Z,6.80
2018-10-01T07:54:29.208Z,10.97
2018-10-01T07:56:57.429Z,9.63
2018-10-01T07:59:25.651Z,8.23
2018-10-01T08:01:53.779Z,8.77
2018-10-01T08:04:21.961Z,8.50
2018-10-01T08:06:50.098Z,11.90
2018-10-01T08:09:18.288Z,8.43
2018-10-01T08:11:46.450Z,7.83
2018-10-01T08:14:14.877Z,8.17
2018-10-01T08:16:42.926Z,9.27
2018-10-01T08:19:11.073Z,10.30
2018-10-01T08:21:39.223Z,10.03
2018-10-01T08:24:07.352Z,9.23
2018-10-01T08:26:35.525Z,8.80
2018-10-01T08:29:03.596Z,11.07
2018-10-01T08:31:31.792Z,8.73
2018-10-01T08:33:59.932Z,7.37
2018-10-01T08:36:28.137Z,10.17
2018-10-01T08:38:56.366Z,7.13
2018-10-01T08:41:24.479Z,5.90
2018-10-01T08:43:52.632Z,9.53
2018-10-01T08:46:20.764Z,7.60
2018-10-01T08:48:53.229Z,10.23
2018-10-01T08:51:27.847Z,9.07
2018-10-01T08:54:05.477Z,8.17
2018-10-01T08:56:33.655Z,10.63
2018-10-01T08:59:01.806Z,10.07
2018-10-01T09:01:29.925Z,9.30
2018-10-01T09:03:58.055Z,7.67
2018-10-01T09:06:26.186Z,8.63
2018-10-01T09:08:54.336Z,7.23
2018-10-01T09:11:22.451Z,7.40
2018-10-01T09:13:50.588Z,7.03
2018-10-01T09:16:18.781Z,6.07
2018-10-01T09:18:46.970Z,8.20
2018-10-01T09:21:16.127Z,8.00
2018-10-01T09:23:44.302Z,7.57
2018-10-01T09:26:12.614Z,7.43
2018-10-01T09:28:40.711Z,8.87
2018-10-01T09:31:08.943Z,7.97
2018-10-01T09:33:37.133Z,5.23
2018-10-01T09:36:05.367Z,6.90
2018-10-01T09:38:34.554Z,8.87
2018-10-01T09:41:02.657Z,9.17
2018-10-01T09:43:30.842Z,7.73
2018-10-01T09:45:59.383Z,5.83
2018-10-01T09:48:27.586Z,8.20
2018-10-01T09:50:55.924Z,7.73
2018-10-01T09:53:25.502Z,6.13
2018-10-01T09:55:53.745Z,6.80
2018-10-01T09:58:21.957Z,3.93
2018-10-01T10:00:55.369Z,5.27
2018-10-01T10:03:24.449Z,6.77
2018-10-01T10:05:52.617Z,5.53
2018-10-01T10:08:21.131Z,6.40
2018-10-01T10:10:49.245Z,4.03
2018-10-01T10:13:17.501Z,3.90
2018-10-01T10:15:45.824Z,5.13
2018-10-01T10:18:15.334Z,3.43
2018-10-01T10:20:43.637Z,4.33
2018-10-01T10:23:11.877Z,5.43
2018-10-01T10:25:40.024Z,4.70
2018-10-01T10:28:08.246Z,4.63
2018-10-01T10:30:36.356Z,6.13
2018-10-01T10:33:04.597Z,4.27
2018-10-01T10:35:33.003Z,5.70
2018-10-01T10:38:02.249Z,2.73
2018-10-01T10:40:30.435Z,7.57
2018-10-01T10:42:58.593Z,8.73
2018-10-01T10:45:26.777Z,5.90
2018-10-01T10:47:55.082Z,4.70
2018-10-01T10:50:23.229Z,4.33
2018-10-01T10:52:51.381Z,4.67
2018-10-01T10:55:19.553Z,7.40
2018-10-01T10:57:47.784Z,5.20
2018-10-01T11:00:15.995Z,5.33
2018-10-01T11:02:44.257Z,4.23
2018-10-01T11:05:12.394Z,5.93
2018-10-01T11:07:41.414Z,4.53
2018-10-01T11:10:09.615Z,3.90
2018-10-01T11:12:38.033Z,3.57
2018-10-01T11:15:06.594Z,3.60
2018-10-01T11:17:34.715Z,3.70
2018-10-01T11:20:02.933Z,3.97
2018-10-01T11:22:31.099Z,5.73
2018-10-01T11:24:59.262Z,3.13
2018-10-01T11:27:27.436Z,4.10
2018-10-01T11:29:55.724Z,5.83
2018-10-01T11:32:23.858Z,5.17
2018-10-01T11:34:52.519Z,3.17
2018-10-01T11:37:20.647Z,2.50
2018-10-01T11:39:49.036Z,2.67
2018-10-01T11:42:17.082Z,4.57
2018-10-01T11:44:45.405Z,3.57
2018-10-01T11:47:13.862Z,2.67
2018-10-01T11:49:41.961Z,1.27
2018-10-01T11:52:10.093Z,3.03
2018-10-01T11:54:38.236Z,2.70
2018-10-01T11:57:07.010Z,5.43
2018-10-01T11:59:35.302Z,2.87
2018-10-01T12:02:03.404Z,3.67
2018-10-01T12:04:31.516Z,3.77
2018-10-01T12:06:59.662Z,2.60
2018-10-01T12:09:27.857Z,3.50
2018-10-01T12:11:55.954Z,1.50
2018-10-01T12:14:24.082Z,1.80
2018-10-01T12:16:52.200Z,1.43
2018-10-01T12:19:20.305Z,1.63
2018-10-01T12:21:48.524Z,4.50
2018-10-01T12:24:16.546Z,2.90
2018-10-01T12:26:44.628Z,4.43
2018-10-01T12:29:12.790Z,2.83
2018-10-01T12:31:40.823Z,3.20
2018-10-01T12:34:08.915Z,1.83
2018-10-01T12:36:37.040Z,3.67
2018-10-01T12:39:07.572Z,5.33
2018-10-01T12:41:35.608Z,5.90
2018-10-01T12:44:03.805Z,4.40
2018-10-01T12:46:31.995Z,4.17
2018-10-01T12:49:00.125Z,5.37
2018-10-01T12:51:28.419Z,2.77
2018-10-01T12:53:56.576Z,2.57
2018-10-01T12:56:24.695Z,4.47
2018-10-01T12:58:52.812Z,3.67
2018-10-01T13:01:20.982Z,3.93
2018-10-01T13:03:49.166Z,2.73
2018-10-01T13:06:17.322Z,1.53
2018-10-01T13:08:45.434Z,2.73
2018-10-01T13:11:13.677Z,3.17
2018-10-01T13:13:41.965Z,3.60
2018-10-01T13:16:10.130Z,5.03
2018-10-01T13:18:38.283Z,5.63
2018-10-01T13:21:06.594Z,5.00
2018-10-01T13:23:34.752Z,12.30
2018-10-01T13:26:02.994Z,7.00
2018-10-01T13:28:31.124Z,8.03
2018-10-01T13:30:59.278Z,8.00
2018-10-01T13:33:27.390Z,7.53
2018-10-01T13:35:55.613Z,3.33
2018-10-01T13:38:23.744Z,2.17
2018-10-01T13:40:51.898Z,3.03
2018-10-01T13:43:20.000Z,3.10
2018-10-01T13:45:48.161Z,2.20
2018-10-01T13:48:16.313Z,2.90
2018-10-01T13:50:44.388Z,2.40
2018-10-01T13:53:12.610Z,1.97
2018-10-01T13:55:40.712Z,4.33
2018-10-01T13:58:08.810Z,2.60
2018-10-01T14:03:11.237Z,2.93
2018-10-01T14:05:39.486Z,4.30
2018-10-01T14:08:07.569Z,4.00
2018-10-01T14:10:35.924Z,5.23
2018-10-01T14:13:04.089Z,5.80
2018-10-01T14:15:32.414Z,4.70
2018-10-01T14:18:00.530Z,2.77
2018-10-01T14:20:28.660Z,4.20
2018-10-01T14:22:56.793Z,3.93
2018-10-01T14:25:24.992Z,4.07
2018-10-01T14:27:53.112Z,4.87
2018-10-01T14:30:21.229Z,3.90
2018-10-01T14:32:49.374Z,2.67
2018-10-01T14:35:17.547Z,3.50
2018-10-01T14:37:45.660Z,4.83
2018-10-01T14:40:13.833Z,3.90
2018-10-01T14:42:41.951Z,3.30
2018-10-01T14:45:10.665Z,6.93
2018-10-01T14:47:38.768Z,2.57
2018-10-01T14:50:06.910Z,5.50
2018-10-01T14:52:35.049Z,4.93
2018-10-01T14:55:03.206Z,7.77
2018-10-01T14:57:31.352Z,5.33
2018-10-01T14:59:59.638Z,10.57
2018-10-01T15:02:27.711Z,7.53
2018-10-01T15:04:55.851Z,7.90
2018-10-01T15:07:23.956Z,6.03
2018-10-01T15:09:52.098Z,5.87
2018-10-01T15:12:20.334Z,7.07
2018-10-01T15:14:48.480Z,5.70
2018-10-01T15:17:16.626Z,6.63
2018-10-01T15:19:44.749Z,8.93
2018-10-01T15:22:13.118Z,5.87
2018-10-01T15:24:41.303Z,5.23
2018-10-01T15:27:09.449Z,5.73
2018-10-01T15:29:37.612Z,9.90
2018-10-01T15:32:05.752Z,10.07
2018-10-01T15:34:33.881Z,5.43
2018-10-01T15:37:01.991Z,6.53
2018-10-01T15:39:31.073Z,11.90
2018-10-01T15:41:59.258Z,9.97
2018-10-01T15:44:27.333Z,4.67
2018-10-01T15:46:55.944Z,3.53
2018-10-01T15:49:24.064Z,5.10
2018-10-01T15:51:52.179Z,6.20
2018-10-01T15:54:20.265Z,6.07
2018-10-01T15:56:48.385Z,5.43
2018-10-01T15:59:16.495Z,4.77
2018-10-01T16:01:50.128Z,4.67
2018-10-01T16:04:18.242Z,6.97
2018-10-01T16:06:46.413Z,4.57
2018-10-01T16:09:14.564Z,4.83
2018-10-01T16:11:42.724Z,6.30
2018-10-01T16:14:10.834Z,4.50
2018-10-01T16:16:38.908Z,4.07
2018-10-01T16:19:07.020Z,5.20
2018-10-01T16:21:35.158Z,3.90
2018-10-01T16:24:03.230Z,6.47
2018-10-01T16:26:33.247Z,2.97
2018-10-01T16:29:01.437Z,4.97
2018-10-01T16:31:29.574Z,5.83
2018-10-01T16:33:57.636Z,6.23
2018-10-01T16:36:26.255Z,7.70
2018-10-01T16:38:54.474Z,4.80
2018-10-01T16:41:22.565Z,7.23
2018-10-01T16:43:50.659Z,7.87
2018-10-01T16:46:18.830Z,7.17
2018-10-01T16:48:46.969Z,5.03
2018-10-01T16:51:15.068Z,4.23
2018-10-01T16:53:43.169Z,8.33
2018-10-01T16:56:11.268Z,8.37
2018-10-01T16:58:39.379Z,7.20
2018-10-01T17:01:07.567Z,8.20
2018-10-01T17:03:35.669Z,5.97
2018-10-01T17:06:03.769Z,5.03
2018-10-01T17:08:31.985Z,4.60
2018-10-01T17:11:00.337Z,9.73
2018-10-01T17:13:28.485Z,5.37
2018-10-01T17:15:56.548Z,6.50
2018-10-01T17:18:25.579Z,6.20
2018-10-01T17:20:53.756Z,4.67
2018-10-01T17:23:21.974Z,4.40
2018-10-01T17:25:50.050Z,6.37
2018-10-01T17:28:18.239Z,5.30
2018-10-01T17:30:46.402Z,3.93
2018-10-01T17:33:14.945Z,4.20
2018-10-01T17:35:43.117Z,4.67
2018-10-01T17:38:11.247Z,4.63
2018-10-01T17:40:39.402Z,6.20
2018-10-01T17:43:07.601Z,6.07
2018-10-01T17:45:35.837Z,9.37
2018-10-01T17:48:03.963Z,8.70
2018-10-01T17:50:32.078Z,6.20
2018-10-01T17:53:00.314Z,4.83
2018-10-01T17:55:28.393Z,5.73
2018-10-01T17:57:56.569Z,9.00
2018-10-01T18:00:24.729Z,4.03
2018-10-01T18:02:52.920Z,9.50
2018-10-01T18:05:21.129Z,5.60
2018-10-01T18:07:49.292Z,6.53
2018-10-01T18:10:17.365Z,6.47
2018-10-01T18:12:45.469Z,6.93
2018-10-01T18:15:13.589Z,7.07
2018-10-01T18:17:41.704Z,6.63
2018-10-01T18:20:09.797Z,7.17
2018-10-01T18:22:37.880Z,6.27
2018-10-01T18:25:06.980Z,10.57
2018-10-01T18:27:35.104Z,6.73
2018-10-01T18:30:03.234Z,8.17
2018-10-01T18:32:31.289Z,7.00
2018-10-01T18:34:59.406Z,6.57
2018-10-01T18:37:27.612Z,6.93
2018-10-01T18:39:55.790Z,9.53
2018-10-01T18:42:23.999Z,7.70
2018-10-01T18:44:52.025Z,7.27
2018-10-01T18:47:20.217Z,6.00
2018-10-01T18:49:48.317Z,8.07
2018-10-01T18:52:16.429Z,6.20
2018-10-01T18:54:44.570Z,6.43
2018-10-01T18:57:12.679Z,7.27
2018-10-01T18:59:40.762Z,7.73
2018-10-01T19:02:08.916Z,5.50
2018-10-01T19:04:36.984Z,7.13
2018-10-01T19:07:05.064Z,5.77
2018-10-01T19:09:33.238Z,9.60
2018-10-01T19:12:01.465Z,10.23
2018-10-01T19:14:29.476Z,7.13
2018-10-01T19:16:57.746Z,8.50
2018-10-01T19:19:25.820Z,6.23
2018-10-01T19:21:53.952Z,7.87
2018-10-01T19:24:22.132Z,8.77
2018-10-01T19:26:50.219Z,4.73
2018-10-01T19:29:18.348Z,8.67
2018-10-01T19:31:46.477Z,8.10
2018-10-01T19:34:14.545Z,9.07
2018-10-01T19:36:42.668Z,5.80
2018-10-01T19:39:10.783Z,8.00
2018-10-01T19:41:38.859Z,10.17
2018-10-01T19:44:06.973Z,9.17
2018-10-01T19:46:35.090Z,4.17
2018-10-01T19:49:03.177Z,8.80
2018-10-01T19:51:31.315Z,6.97
2018-10-01T19:53:59.430Z,6.17
2018-10-01T19:56:27.520Z,7.53
2018-10-01T19:58:55.800Z,6.60
2018-10-01T20:01:23.916Z,6.27
2018-10-01T20:03:52.175Z,7.57
2018-10-01T20:06:20.603Z,5.80
2018-10-01T20:08:48.845Z,5.17
2018-10-01T20:11:17.281Z,4.10
2018-10-01T20:13:45.300Z,6.57
2018-10-01T20:16:13.385Z,6.03
2018-10-01T20:18:41.484Z,9.03
2018-10-01T20:21:09.780Z,8.90
2018-10-01T20:23:37.836Z,7.93
2018-10-01T20:26:06.007Z,10.13
2018-10-01T20:28:34.382Z,9.67
2018-10-01T20:31:02.394Z,6.80
2018-10-01T20:33:30.578Z,4.93
2018-10-01T20:35:59.066Z,9.53
2018-10-01T20:38:27.061Z,9.67
2018-10-01T20:40:55.141Z,5.63
2018-10-01T20:43:23.230Z,7.20
2018-10-01T20:45:51.952Z,4.13
2018-10-01T20:48:20.098Z,5.50
2018-10-01T20:50:50.468Z,9.27
2018-10-01T20:53:19.112Z,3.77
2018-10-01T20:55:47.306Z,7.20
2018-10-01T20:58:15.472Z,6.80
2018-10-01T21:00:43.800Z,6.50
2018-10-01T21:03:12.185Z,6.13
2018-10-01T21:05:40.465Z,6.07
2018-10-01T21:08:08.560Z,6.97
2018-10-01T21:10:36.721Z,9.33
2018-10-01T21:13:04.985Z,8.00
2018-10-01T21:15:33.236Z,10.33
2018-10-01T21:18:01.350Z,9.17
2018-10-01T21:20:29.568Z,14.97
2018-10-01T21:22:57.642Z,9.87
2018-10-01T21:25:25.714Z,6.70
2018-10-01T21:27:53.812Z,5.60
2018-10-01T21:30:21.946Z,8.27
2018-10-01T21:32:50.029Z,12.33
2018-10-01T21:35:18.124Z,9.53
2018-10-01T21:37:46.199Z,11.57
2018-10-01T21:40:15.425Z,8.10
2018-10-01T21:42:43.701Z,9.77
2018-10-01T21:45:13.016Z,7.47
2018-10-01T21:47:41.133Z,12.20
2018-10-01T21:50:09.292Z,7.90
2018-10-01T21:52:37.364Z,6.83
2018-10-01T21:55:05.692Z,7.00
2018-10-01T21:57:33.749Z,10.33
2018-10-01T22:00:01.825Z,11.63
2018-10-01T22:02:29.912Z,10.03
2018-10-01T22:04:58.019Z,8.47
2018-10-01T22:07:26.156Z,11.53
2018-10-01T22:09:54.214Z,8.20
2018-10-01T22:12:22.265Z,7.10
2018-10-01T22:14:50.340Z,8.93
2018-10-01T22:17:18.404Z,6.27
2018-10-01T22:19:46.495Z,9.70
2018-10-01T22:22:14.558Z,8.33
2018-10-01T22:24:42.632Z,6.57
2018-10-01T22:27:10.776Z,10.70
2018-10-01T22:29:38.861Z,8.27
2018-10-01T22:32:06.922Z,7.97
2018-10-01T22:34:35.112Z,9.37
2018-10-01T22:37:03.165Z,8.87
2018-10-01T22:39:31.235Z,6.83
2018-10-01T22:41:59.316Z,11.40
2018-10-01T22:44:27.389Z,10.73
2018-10-01T22:46:55.467Z,13.80
2018-10-01T22:49:23.645Z,8.53
2018-10-01T22:51:51.721Z,12.20
2018-10-01T22:54:19.783Z,6.73
2018-10-01T22:56:47.854Z,9.20
2018-10-01T22:59:15.932Z,7.63
2018-10-01T23:01:44.015Z,9.70
2018-10-01T23:04:12.155Z,9.77
2018-10-01T23:06:40.229Z,8.47
2018-10-01T23:09:08.963Z,11.53
2018-10-01T23:11:37.243Z,10.33
2018-10-01T23:14:05.339Z,11.40
2018-10-01T23:16:33.580Z,6.27
2018-10-01T23:19:01.674Z,8.93
2018-10-01T23:21:29.869Z,12.20
2018-10-01T23:23:57.956Z,12.53
2018-10-01T23:26:26.039Z,9.30
2018-10-01T23:28:54.195Z,11.23
2018-10-01T23:31:22.260Z,9.67
2018-10-01T23:33:50.314Z,10.37
2018-10-01T23:36:18.404Z,10.20
2018-10-01T23:38:46.471Z,13.13
2018-10-01T23:41:14.556Z,11.03
2018-10-01T23:43:42.630Z,11.27
2018-10-01T23:46:10.713Z,7.07
2018-10-01T23:48:38.774Z,11.60
2018-10-01T23:51:06.841Z,10.43
2018-10-01T23:53:34.926Z,10.80
2018-10-01T23:56:03.043Z,10.90
2018-10-01T23:58:31.120Z,14.43
